Time;durP1;ratioP1;P1;durP2;ratioP2;P2;SDS_P1;SDS_P2;PMS_P1;PMS_P2;Temp;Humidity;BMP_temperature;BMP_pressure;BME280_temperature;BME280_humidity;BME280_pressure;Samples;Min_cycle;Max_cycle;Signal;HPM_P1;HPM_P2
2021/11/19 00:00:10;;;;;;;10.33;9.43;;;7.80;99.90;;;;;;10410741;28;20256;-83
2021/11/19 00:05:16;;;;;;;9.40;8.60;;;7.80;99.90;;;;;;10418609;28;20213;-83
2021/11/19 00:10:19;;;;;;;10.07;8.67;;;7.90;99.90;;;;;;10409376;28;20237;-82
2021/11/19 00:15:22;;;;;;;11.47;9.20;;;7.90;99.90;;;;;;10406146;28;20240;-82
2021/11/19 00:20:28;;;;;;;13.37;9.53;;;7.90;99.90;;;;;;10404942;28;20236;-83
2021/11/19 00:25:31;;;;;;;10.70;9.70;;;7.80;99.90;;;;;;10405259;28;20210;-83
2021/11/19 00:30:36;;;;;;;10.13;8.97;;;7.80;99.90;;;;;;10396632;28;20744;-82
2021/11/19 00:35:42;;;;;;;10.90;9.80;;;7.70;99.90;;;;;;10422258;28;20220;-83
2021/11/19 00:40:51;;;;;;;9.03;8.23;;;7.60;99.90;;;;;;10409633;28;20226;-82
2021/11/19 00:45:55;;;;;;;9.97;8.50;;;7.60;99.90;;;;;;10415182;28;20720;-82
2021/11/19 00:51:04;;;;;;;9.80;8.17;;;7.50;99.90;;;;;;10398700;28;20781;-83
2021/11/19 00:56:06;;;;;;;10.60;7.30;;;7.50;99.90;;;;;;10416811;28;20208;-83
2021/11/19 01:01:13;;;;;;;9.13;8.23;;;7.50;99.90;;;;;;10425840;28;20232;-82
2021/11/19 01:06:16;;;;;;;9.33;8.30;;;7.40;99.90;;;;;;10417763;28;20214;-83
2021/11/19 01:11:28;;;;;;;8.50;7.70;;;7.40;99.90;;;;;;10400074;28;20237;-83
2021/11/19 01:16:35;;;;;;;8.77;7.97;;;7.40;99.90;;;;;;10406625;28;20597;-82
2021/11/19 01:21:42;;;;;;;8.47;7.67;;;7.40;99.90;;;;;;10423243;28;20224;-82
2021/11/19 01:26:46;;;;;;;7.93;7.03;;;7.40;99.90;;;;;;10417915;28;20206;-82
2021/11/19 01:31:55;;;;;;;8.90;8.20;;;7.40;99.90;;;;;;10417616;28;20230;-82
2021/11/19 01:37:14;;;;;;;8.03;7.33;;;7.40;99.90;;;;;;10395779;28;20589;-82
2021/11/19 01:42:35;;;;;;;9.90;8.90;;;7.40;99.90;;;;;;10408116;28;20281;-82
2021/11/19 01:47:43;;;;;;;8.97;8.17;;;7.30;99.90;;;;;;10385788;28;20214;-82
2021/11/19 01:52:51;;;;;;;10.43;9.40;;;7.30;99.90;;;;;;10419415;28;20230;-82
2021/11/19 01:58:00;;;;;;;9.13;8.20;;;7.30;99.90;;;;;;10405519;28;20480;-82
2021/11/19 02:03:04;;;;;;;9.33;8.53;;;7.30;99.90;;;;;;10391438;28;20272;-82
2021/11/19 02:08:13;;;;;;;9.20;8.50;;;7.20;99.90;;;;;;10388975;28;20217;-82
2021/11/19 02:13:25;;;;;;;8.80;8.00;;;7.20;99.90;;;;;;10404858;28;20230;-82
2021/11/19 02:18:33;;;;;;;8.40;7.63;;;7.10;99.90;;;;;;10352542;28;20207;-82
2021/11/19 02:23:42;;;;;;;8.83;8.07;;;7.10;99.90;;;;;;10351942;28;20225;-82
2021/11/19 02:28:47;;;;;;;9.20;8.40;;;7.00;99.90;;;;;;10375075;28;20205;-82
2021/11/19 02:33:51;;;;;;;10.03;9.10;;;7.00;99.90;;;;;;10412859;28;20654;-82
2021/11/19 02:38:59;;;;;;;9.13;8.20;;;7.10;99.90;;;;;;10388573;28;20697;-83
2021/11/19 02:44:04;;;;;;;8.50;7.80;;;7.00;99.90;;;;;;10401841;28;20272;-82
2021/11/19 02:49:07;;;;;;;9.50;8.70;;;7.00;99.90;;;;;;10407050;28;20205;-82
2021/11/19 02:54:13;;;;;;;9.57;8.77;;;6.90;99.90;;;;;;10400960;28;20230;-83
2021/11/19 02:59:17;;;;;;;9.23;8.33;;;6.90;99.90;;;;;;10410763;28;20217;-82
2021/11/19 03:04:24;;;;;;;9.37;8.57;;;6.90;99.90;;;;;;10403890;28;20234;-82
2021/11/19 03:09:32;;;;;;;10.13;9.20;;;6.90;99.90;;;;;;10392424;28;20217;-82
2021/11/19 03:14:35;;;;;;;9.20;8.30;;;6.80;99.90;;;;;;10403782;28;20303;-82
2021/11/19 03:19:38;;;;;;;9.40;8.67;;;6.80;99.90;;;;;;10399764;28;20714;-82
2021/11/19 03:24:43;;;;;;;10.00;9.20;;;6.80;99.90;;;;;;10405721;28;20198;-82
2021/11/19 03:29:47;;;;;;;9.63;8.73;;;6.90;99.90;;;;;;10385972;28;20209;-83
2021/11/19 03:34:50;;;;;;;10.77;9.73;;;6.90;99.90;;;;;;10401160;28;20226;-83
2021/11/19 03:39:54;;;;;;;10.00;9.00;;;6.90;99.90;;;;;;10399886;28;20265;-82
2021/11/19 03:45:00;;;;;;;9.17;8.37;;;6.90;99.90;;;;;;10408739;28;20213;-82
2021/11/19 03:50:10;;;;;;;9.83;9.03;;;6.90;99.90;;;;;;10373642;28;20221;-82
2021/11/19 03:55:18;;;;;;;9.47;8.67;;;6.80;99.90;;;;;;10405444;28;20208;-82
2021/11/19 04:00:23;;;;;;;10.43;9.53;;;6.80;99.90;;;;;;10398034;28;20276;-82
2021/11/19 04:05:28;;;;;;;9.20;8.40;;;6.80;99.90;;;;;;10403198;28;20212;-82
2021/11/19 04:10:33;;;;;;;10.00;9.00;;;6.70;99.90;;;;;;10402071;28;20321;-82
2021/11/19 04:15:39;;;;;;;10.10;9.10;;;6.70;99.90;;;;;;10403377;28;20248;-82
2021/11/19 04:20:42;;;;;;;11.23;10.13;;;6.60;99.90;;;;;;10395967;28;20248;-82
2021/11/19 04:25:47;;;;;;;11.40;10.07;;;6.60;99.90;;;;;;10385464;28;20209;-82
2021/11/19 04:30:52;;;;;;;10.97;9.77;;;6.50;99.90;;;;;;10409409;28;20222;-82
2021/11/19 04:35:58;;;;;;;10.73;9.73;;;6.50;99.90;;;;;;10426548;28;20233;-83
2021/11/19 04:41:02;;;;;;;11.27;10.20;;;6.40;99.90;;;;;;10417734;28;20230;-82
2021/11/19 04:46:06;;;;;;;10.87;9.77;;;6.40;99.90;;;;;;10404679;28;20277;-82
2021/11/19 04:51:11;;;;;;;10.80;9.90;;;6.40;99.90;;;;;;10405616;28;20312;-82
2021/11/19 04:56:16;;;;;;;11.43;9.90;;;6.40;99.90;;;;;;10420867;28;20748;-82
2021/11/19 05:01:22;;;;;;;10.73;9.77;;;6.40;99.90;;;;;;10413197;28;20658;-82
2021/11/19 05:06:42;;;;;;;10.83;9.67;;;6.40;99.90;;;;;;10406660;28;20295;-82
2021/11/19 05:11:53;;;;;;;11.13;10.03;;;6.30;99.90;;;;;;10403402;28;20233;-82
2021/11/19 05:16:56;;;;;;;11.83;10.80;;;6.30;99.90;;;;;;10405953;28;20701;-82
2021/11/19 05:21:59;;;;;;;11.73;10.63;;;6.30;99.90;;;;;;10417337;28;20309;-82
2021/11/19 05:27:03;;;;;;;11.83;10.63;;;6.40;99.90;;;;;;10386487;28;20220;-82
2021/11/19 05:32:07;;;;;;;12.97;11.30;;;6.40;99.90;;;;;;10410545;28;20584;-82
2021/11/19 05:37:10;;;;;;;11.40;10.30;;;6.40;99.90;;;;;;10406037;28;20646;-82
2021/11/19 05:42:14;;;;;;;13.07;11.87;;;6.40;99.90;;;;;;10406188;28;20222;-82
2021/11/19 05:47:16;;;;;;;12.47;11.37;;;6.40;99.90;;;;;;10403108;28;20782;-82
2021/11/19 05:52:23;;;;;;;12.00;10.80;;;6.40;99.90;;;;;;10401950;28;20242;-82
2021/11/19 05:57:28;;;;;;;13.50;12.07;;;6.40;99.90;;;;;;10405347;28;20676;-82
2021/11/19 06:02:33;;;;;;;12.10;11.03;;;6.40;99.90;;;;;;10400066;28;20602;-82
2021/11/19 07:30:28;;;;;;;11.63;10.63;;;7.30;99.90;;;;;;9980425;29;20248;-83
2021/11/19 07:35:37;;;;;;;13.33;11.97;;;7.40;99.90;;;;;;10478529;28;20263;-83
2021/11/19 07:41:08;;;;;;;12.73;11.47;;;7.50;99.90;;;;;;10456000;28;20229;-83
2021/11/19 07:46:30;;;;;;;13.43;12.27;;;7.70;99.90;;;;;;10495940;28;20745;-83
2021/11/19 07:51:43;;;;;;;12.00;10.80;;;7.80;99.90;;;;;;10472445;28;20625;-83
2021/11/19 07:56:49;;;;;;;11.97;10.63;;;7.90;99.90;;;;;;10457411;28;20208;-83
2021/11/19 08:01:53;;;;;;;11.90;10.87;;;8.10;99.90;;;;;;10452661;28;20775;-83
2021/11/19 08:06:57;;;;;;;13.43;11.03;;;8.10;99.90;;;;;;10476806;28;20254;-83
2021/11/19 08:12:19;;;;;;;13.63;12.43;;;8.20;99.90;;;;;;10482623;28;20224;-83
2021/11/19 08:17:36;;;;;;;12.40;11.30;;;8.30;99.90;;;;;;10472260;28;20238;-83
2021/11/19 09:15:57;;;;;;;16.13;14.43;;;9.00;99.90;;;;;;9910477;30;20374;-83
2021/11/19 09:21:15;;;;;;;15.17;13.67;;;9.10;99.90;;;;;;10073254;28;20655;-83
2021/11/19 09:26:21;;;;;;;14.47;13.10;;;9.20;99.90;;;;;;10470099;28;20204;-84
2021/11/19 09:31:25;;;;;;;18.90;14.70;;;9.30;99.90;;;;;;10462621;28;20220;-83
2021/11/19 09:36:27;;;;;;;19.93;16.50;;;9.40;99.90;;;;;;10485325;28;20283;-83
2021/11/19 09:41:48;;;;;;;19.83;15.07;;;9.50;99.90;;;;;;10480785;28;20311;-83
2021/11/19 09:47:06;;;;;;;16.57;14.97;;;9.50;99.90;;;;;;10471335;28;20220;-83
2021/11/19 09:52:51;;;;;;;17.50;15.70;;;9.60;99.90;;;;;;10505906;28;20219;-83
2021/11/19 09:58:37;;;;;;;16.33;14.50;;;9.50;99.90;;;;;;10468307;28;20208;-83
2021/11/19 10:04:15;;;;;;;19.77;15.07;;;9.50;99.90;;;;;;10420799;28;20246;-83
2021/11/19 10:09:21;;;;;;;20.90;16.00;;;9.50;99.90;;;;;;10403570;28;20226;-83
2021/11/19 10:14:42;;;;;;;18.80;15.80;;;9.60;99.90;;;;;;10475614;28;20260;-83
2021/11/19 11:19:43;;;;;;;23.70;18.17;;;9.90;99.90;;;;;;10314364;28;20287;-83
2021/11/19 11:24:51;;;;;;;23.03;18.60;;;10.10;99.90;;;;;;10433417;28;20225;-83
2021/11/19 11:29:58;;;;;;;20.13;17.93;;;10.10;99.90;;;;;;10429924;28;20220;-83
2021/11/19 11:35:13;;;;;;;21.27;19.00;;;10.10;99.90;;;;;;10433045;28;20236;-83
2021/11/19 11:40:24;;;;;;;21.73;18.90;;;10.20;99.90;;;;;;10433347;28;20237;-83
2021/11/19 11:45:42;;;;;;;22.93;18.80;;;10.10;99.90;;;;;;10431381;28;20279;-83
2021/11/19 11:50:56;;;;;;;24.47;19.07;;;10.20;99.90;;;;;;10449468;28;20237;-82
2021/11/19 11:56:21;;;;;;;20.63;18.10;;;10.30;99.90;;;;;;10432071;28;20685;-83
2021/11/19 12:01:35;;;;;;;20.50;18.07;;;10.30;99.90;;;;;;10430650;28;20236;-83
2021/11/19 12:06:47;;;;;;;20.53;17.93;;;10.30;99.90;;;;;;10449119;28;20205;-83
2021/11/19 12:12:23;;;;;;;16.97;15.27;;;10.40;99.90;;;;;;10471555;28;20704;-83
2021/11/19 12:17:38;;;;;;;17.40;15.60;;;10.40;99.90;;;;;;10467119;28;20204;-83
2021/11/19 12:22:45;;;;;;;16.90;14.73;;;10.40;99.90;;;;;;10449012;28;20236;-82
2021/11/19 12:27:51;;;;;;;17.90;15.63;;;10.40;99.90;;;;;;10449087;28;20201;-83
2021/11/19 12:32:59;;;;;;;19.57;14.43;;;10.40;99.90;;;;;;10446780;28;20217;-83
2021/11/19 12:38:06;;;;;;;16.07;14.47;;;10.30;99.90;;;;;;10449155;28;20197;-83
2021/11/19 12:43:22;;;;;;;15.53;14.03;;;10.30;99.90;;;;;;10447372;28;20247;-83
2021/11/19 12:48:58;;;;;;;17.87;12.70;;;10.30;99.90;;;;;;10442020;28;20750;-83
2021/11/19 12:54:16;;;;;;;18.73;15.10;;;10.20;99.90;;;;;;10444671;28;20225;-82
2021/11/19 12:59:23;;;;;;;17.03;14.17;;;10.30;99.90;;;;;;10428552;28;20228;-82
2021/11/19 13:50:27;;;;;;;;;;;;;;;;;;;;;
2021/11/19 14:15:50;;;;;;;;;;;;;;;;;;;;;
2021/11/19 14:22:26;;;;;;;15.03;12.60;;;10.30;99.90;;;;;;10441564;28;20237;-83
2021/11/19 14:35:17;;;;;;;15.60;12.87;;;10.40;99.90;;;;;;10447559;28;20236;-83
2021/11/19 14:48:58;;;;;;;16.07;11.97;;;10.30;99.90;;;;;;10449153;28;20209;-83
2021/11/19 15:29:07;;;;;;;14.40;11.80;;;10.30;99.90;;;;;;10262216;28;20266;-82
2021/11/19 15:41:22;;;;;;;13.23;11.93;;;10.20;99.90;;;;;;10413750;28;20243;-83
2021/11/19 15:46:28;;;;;;;16.53;11.60;;;10.30;99.90;;;;;;10465557;28;20603;-82
2021/11/19 15:51:34;;;;;;;15.73;13.93;;;10.20;99.90;;;;;;10429679;28;20229;-82
2021/11/19 15:57:01;;;;;;;13.87;12.40;;;10.20;99.90;;;;;;10429365;28;20235;-82
2021/11/19 16:02:16;;;;;;;13.33;11.90;;;10.20;99.90;;;;;;10448655;28;20261;-82
2021/11/19 16:07:39;;;;;;;15.80;11.27;;;10.20;99.90;;;;;;10481758;28;20201;-82
2021/11/19 16:13:04;;;;;;;12.33;11.10;;;10.20;99.90;;;;;;10433632;28;20255;-83
2021/11/19 16:18:06;;;;;;;12.00;10.90;;;10.20;99.90;;;;;;10464355;28;20302;-83
2021/11/19 16:28:32;;;;;;;12.10;10.90;;;10.20;99.90;;;;;;10427014;28;20593;-83
2021/11/19 16:33:36;;;;;;;12.07;11.00;;;10.20;99.90;;;;;;10427275;28;20241;-83
2021/11/19 16:38:39;;;;;;;11.90;10.70;;;10.20;99.90;;;;;;10427918;28;20224;-83
2021/11/19 16:43:45;;;;;;;11.00;9.40;;;10.20;99.90;;;;;;10437208;28;20283;-83
2021/11/19 16:48:47;;;;;;;9.77;8.83;;;10.20;99.90;;;;;;10438417;28;20631;-83
2021/11/19 16:53:50;;;;;;;11.83;9.90;;;10.30;99.90;;;;;;10438010;28;20233;-82
2021/11/19 16:58:55;;;;;;;10.33;9.43;;;10.20;99.90;;;;;;10432284;28;20205;-83
2021/11/19 17:03:58;;;;;;;12.63;10.67;;;10.20;99.90;;;;;;10428683;28;20317;-83
2021/11/19 17:09:00;;;;;;;11.53;10.50;;;10.10;99.90;;;;;;10413141;28;20276;-82
2021/11/19 17:14:04;;;;;;;11.90;10.80;;;10.10;99.90;;;;;;10429120;28;20747;-83
2021/11/19 17:19:07;;;;;;;12.27;10.97;;;10.10;99.90;;;;;;10416146;28;20255;-83
2021/11/19 17:24:11;;;;;;;12.80;11.70;;;10.10;99.90;;;;;;10426518;28;20248;-83
2021/11/19 17:29:18;;;;;;;13.50;12.13;;;10.00;99.90;;;;;;10441958;28;20241;-82
2021/11/19 17:34:21;;;;;;;11.70;10.67;;;10.00;99.90;;;;;;10419874;28;20225;-83
2021/11/19 17:39:26;;;;;;;13.07;11.80;;;10.10;99.90;;;;;;10436403;28;20205;-82
2021/11/19 17:44:30;;;;;;;17.37;15.77;;;10.10;99.90;;;;;;10407442;28;1128599;-83
2021/11/19 17:49:35;;;;;;;15.70;14.20;;;10.10;99.90;;;;;;10431857;28;20584;-83
2021/11/19 17:54:41;;;;;;;15.43;13.93;;;10.10;99.90;;;;;;10454483;28;20208;-82
2021/11/19 17:59:47;;;;;;;15.30;13.80;;;10.10;99.90;;;;;;10416475;28;20301;-82
2021/11/19 18:04:52;;;;;;;23.53;21.13;;;10.00;99.90;;;;;;10420271;28;20716;-83
2021/11/19 18:09:54;;;;;;;13.27;12.10;;;10.10;99.90;;;;;;10430925;28;20205;-83
2021/11/19 18:15:00;;;;;;;13.10;11.97;;;10.10;99.90;;;;;;10457710;28;20271;-82
2021/11/19 18:20:13;;;;;;;10.67;9.70;;;10.00;99.90;;;;;;10420833;28;20295;-82
2021/11/19 18:25:16;;;;;;;12.00;11.00;;;10.00;99.90;;;;;;10413521;28;20285;-83
2021/11/19 18:30:23;;;;;;;13.67;12.40;;;10.00;99.90;;;;;;10414207;28;20233;-82
2021/11/19 18:35:33;;;;;;;11.93;10.93;;;10.00;99.90;;;;;;10422067;28;20234;-83
2021/11/19 18:40:39;;;;;;;14.93;13.00;;;9.90;99.90;;;;;;10431767;28;20221;-82
2021/11/19 18:45:57;;;;;;;14.67;13.27;;;10.00;99.90;;;;;;10425259;28;20685;-83
2021/11/19 18:51:04;;;;;;;15.50;14.10;;;10.00;99.90;;;;;;10412774;28;20291;-83
2021/11/19 18:56:06;;;;;;;14.40;13.07;;;10.00;99.90;;;;;;10404749;28;20241;-82
2021/11/19 19:01:12;;;;;;;14.40;13.10;;;10.00;99.90;;;;;;10439969;28;20256;-84
2021/11/19 19:06:18;;;;;;;15.07;13.77;;;10.00;99.90;;;;;;10447233;28;20197;-84
2021/11/19 19:11:23;;;;;;;15.60;14.10;;;10.00;99.90;;;;;;10408103;28;20260;-83
2021/11/19 19:16:30;;;;;;;12.93;11.67;;;10.00;99.90;;;;;;10424715;28;20225;-83
2021/11/19 19:21:32;;;;;;;12.87;11.67;;;10.10;99.90;;;;;;10442093;28;20257;-83
2021/11/19 19:26:42;;;;;;;12.90;11.70;;;10.00;99.90;;;;;;10426718;28;20205;-82
2021/11/19 19:31:48;;;;;;;14.37;13.10;;;10.10;99.90;;;;;;10429157;28;20260;-83
2021/11/19 19:36:55;;;;;;;12.57;11.43;;;10.10;99.90;;;;;;10462591;28;20217;-82
2021/11/19 19:42:01;;;;;;;13.60;12.40;;;10.10;99.90;;;;;;10443576;28;20232;-83
2021/11/19 19:47:07;;;;;;;12.93;11.83;;;10.10;99.90;;;;;;10460499;28;20197;-84
2021/11/19 19:52:11;;;;;;;10.23;9.33;;;10.10;99.90;;;;;;10439255;28;20267;-83
2021/11/19 19:57:14;;;;;;;11.50;10.50;;;10.10;99.90;;;;;;10407282;28;20345;-83
2021/11/19 20:02:21;;;;;;;9.17;8.27;;;10.20;99.90;;;;;;10444873;28;20253;-83
2021/11/19 20:07:24;;;;;;;10.40;9.40;;;10.10;99.90;;;;;;10442882;28;20589;-83
2021/11/19 20:12:30;;;;;;;12.27;11.17;;;10.10;99.90;;;;;;10448285;28;20304;-83
2021/11/19 20:17:38;;;;;;;11.60;10.70;;;10.10;99.90;;;;;;10438727;28;20776;-82
2021/11/19 20:22:43;;;;;;;10.63;9.57;;;10.20;99.90;;;;;;10456489;28;20222;-83
2021/11/19 20:27:48;;;;;;;10.60;9.70;;;10.10;99.90;;;;;;10444289;28;20288;-83
2021/11/19 20:32:52;;;;;;;9.93;9.03;;;10.10;99.90;;;;;;10451675;28;20229;-83
2021/11/19 20:37:57;;;;;;;9.93;9.00;;;10.10;99.90;;;;;;10425403;28;20581;-83
2021/11/19 20:43:00;;;;;;;9.40;8.67;;;10.10;99.90;;;;;;10436946;28;20237;-84
2021/11/19 20:48:05;;;;;;;8.80;8.10;;;10.10;99.90;;;;;;10429166;28;20213;-83
2021/11/19 20:53:11;;;;;;;13.37;12.03;;;10.10;99.90;;;;;;10413988;28;20992;-84
2021/11/19 20:58:16;;;;;;;10.00;9.20;;;10.10;99.90;;;;;;10421332;28;20208;-83
2021/11/19 21:03:23;;;;;;;10.80;9.80;;;10.00;99.90;;;;;;10433384;28;20225;-83
2021/11/19 21:08:28;;;;;;;10.10;9.20;;;10.00;99.90;;;;;;10421072;28;20237;-83
2021/11/19 21:13:32;;;;;;;10.60;9.70;;;9.90;99.90;;;;;;10404870;28;20225;-83
2021/11/19 21:18:38;;;;;;;11.27;10.33;;;10.00;99.90;;;;;;10443452;28;20205;-83
2021/11/19 21:23:42;;;;;;;10.47;9.47;;;10.00;99.90;;;;;;10442503;28;20308;-84
2021/11/19 21:28:47;;;;;;;10.30;9.40;;;10.10;99.90;;;;;;10438540;28;20263;-83
2021/11/19 21:41:30;;;;;;;12.97;11.63;;;10.10;99.90;;;;;;10274801;28;20238;-84
2021/11/19 22:21:22;;;;;;;9.67;8.87;;;10.20;99.90;;;;;;10485011;28;20272;-83
2021/11/19 22:27:00;;;;;;;10.10;9.20;;;10.20;99.90;;;;;;10526649;28;20217;-82
2021/11/19 22:32:23;;;;;;;10.87;9.87;;;10.20;99.90;;;;;;10528130;28;20224;-84
2021/11/19 22:37:41;;;;;;;11.80;10.70;;;10.20;99.90;;;;;;10529580;28;20615;-83
2021/11/19 22:42:46;;;;;;;9.63;8.83;;;10.20;99.90;;;;;;10536640;28;20286;-83
2021/11/19 22:47:51;;;;;;;12.00;10.80;;;10.20;99.90;;;;;;10533876;28;20210;-83
2021/11/19 22:52:55;;;;;;;10.60;9.60;;;10.20;99.90;;;;;;10533486;28;20227;-84
2021/11/19 22:57:59;;;;;;;10.13;9.33;;;10.20;99.90;;;;;;10533487;28;20280;-83
2021/11/19 23:03:02;;;;;;;11.30;10.30;;;10.30;99.90;;;;;;10545749;28;20227;-83
2021/11/19 23:08:07;;;;;;;11.33;10.33;;;10.20;99.90;;;;;;10523964;28;20224;-83
2021/11/19 23:13:09;;;;;;;11.13;10.13;;;10.20;99.90;;;;;;10542971;28;20341;-84
2021/11/19 23:18:14;;;;;;;12.37;11.27;;;10.20;99.90;;;;;;10528772;28;20219;-83
2021/11/19 23:23:18;;;;;;;11.87;10.87;;;10.20;99.90;;;;;;10548720;28;20292;-83
2021/11/19 23:28:24;;;;;;;15.50;14.00;;;10.20;99.90;;;;;;10551792;28;20207;-83
2021/11/19 23:33:29;;;;;;;13.40;12.17;;;10.20;99.90;;;;;;10526833;28;20231;-83
2021/11/19 23:38:33;;;;;;;14.40;13.10;;;10.20;99.90;;;;;;10543364;28;20242;-83
2021/11/19 23:43:39;;;;;;;14.77;13.43;;;10.20;99.90;;;;;;10542885;28;20247;-83
2021/11/19 23:48:42;;;;;;;15.10;13.70;;;10.20;99.90;;;;;;10534086;28;20207;-83
2021/11/19 23:53:50;;;;;;;15.90;14.40;;;10.20;99.90;;;;;;10542951;28;20747;-83
2021/11/19 23:58:54;;;;;;;16.50;14.80;;;10.20;99.90;;;;;;10543565;28;20207;-82
